Time;durP1;ratioP1;P1;durP2;ratioP2;P2;SDS_P1;SDS_P2;PMS_P1;PMS_P2;Temp;Humidity;BMP_temperature;BMP_pressure;BME280_temperature;BME280_humidity;BME280_pressure;Samples;Min_cycle;Max_cycle;Signal;HPM_P1;HPM_P2
2022/03/18 00:00:51;;;;;;;9.45;4.18;;;;;;;;;;5045603;28;20071;-84
2022/03/18 00:03:17;;;;;;;7.43;4.35;;;;;;;;;;5049162;28;20028;-83
2022/03/18 00:05:43;;;;;;;10.63;4.70;;;;;;;;;;5051217;28;20020;-84
2022/03/18 00:08:10;;;;;;;6.97;3.83;;;;;;;;;;5044843;28;20548;-83
2022/03/18 00:10:36;;;;;;;6.43;3.40;;;;;;;;;;5044688;28;20426;-84
2022/03/18 00:13:03;;;;;;;9.80;4.28;;;;;;;;;;5043421;28;20630;-83
2022/03/18 00:15:29;;;;;;;8.32;4.13;;;;;;;;;;5043111;28;20021;-84
2022/03/18 00:17:56;;;;;;;9.50;4.03;;;;;;;;;;5052129;28;20030;-84
2022/03/18 00:20:22;;;;;;;7.05;3.65;;;;;;;;;;5050374;28;20032;-84
2022/03/18 00:22:48;;;;;;;11.23;4.63;;;;;;;;;;5041488;28;20051;-84
2022/03/18 00:25:15;;;;;;;7.80;3.03;;;;;;;;;;5040923;28;20030;-83
2022/03/18 00:27:44;;;;;;;7.90;3.42;;;;;;;;;;5041389;28;20637;-83
2022/03/18 00:30:11;;;;;;;9.73;3.45;;;;;;;;;;5041681;28;20027;-84
2022/03/18 00:32:41;;;;;;;6.55;3.58;;;;;;;;;;5049171;28;20504;-84
2022/03/18 00:35:08;;;;;;;8.15;3.13;;;;;;;;;;5046001;28;20036;-84
2022/03/18 00:37:34;;;;;;;7.95;4.00;;;;;;;;;;5051049;28;20602;-83
2022/03/18 00:40:00;;;;;;;13.52;4.30;;;;;;;;;;5045502;28;20025;-82
2022/03/18 00:42:26;;;;;;;9.93;3.38;;;;;;;;;;5044148;28;20101;-83
2022/03/18 00:44:52;;;;;;;7.75;3.42;;;;;;;;;;5044534;28;20033;-84
2022/03/18 00:52:49;;;;;;;6.28;2.80;;;;;;;;;;5047018;28;20571;-83
2022/03/18 00:55:14;;;;;;;5.97;2.92;;;;;;;;;;5047255;28;20025;-83
2022/03/18 00:57:41;;;;;;;7.40;4.05;;;;;;;;;;5040669;28;20112;-84
2022/03/18 01:00:07;;;;;;;8.40;2.92;;;;;;;;;;5047884;28;20029;-84
2022/03/18 01:02:33;;;;;;;13.40;2.22;;;;;;;;;;5048057;28;20033;-84
2022/03/18 01:04:59;;;;;;;7.45;3.25;;;;;;;;;;5045415;28;20423;-84
2022/03/18 01:07:25;;;;;;;6.20;3.05;;;;;;;;;;5043753;28;20102;-84
2022/03/18 01:09:51;;;;;;;8.20;3.95;;;;;;;;;;5048940;28;20032;-84
2022/03/18 01:12:17;;;;;;;5.47;2.45;;;;;;;;;;5044206;28;20029;-84
2022/03/18 01:14:43;;;;;;;7.65;2.95;;;;;;;;;;5039477;28;20033;-83
2022/03/18 01:17:09;;;;;;;9.68;3.15;;;;;;;;;;5048210;28;20040;-83
2022/03/18 01:19:35;;;;;;;6.22;2.78;;;;;;;;;;5046818;28;20051;-84
2022/03/18 01:22:01;;;;;;;5.65;2.97;;;;;;;;;;5044297;28;20028;-84
2022/03/18 01:24:27;;;;;;;6.13;3.28;;;;;;;;;;5040309;28;20112;-84
2022/03/18 01:26:53;;;;;;;6.43;2.75;;;;;;;;;;5047012;28;20045;-84
2022/03/18 01:29:19;;;;;;;5.50;2.95;;;;;;;;;;5044390;28;20029;-84
2022/03/18 01:31:45;;;;;;;3.70;2.20;;;;;;;;;;5050240;28;20089;-83
2022/03/18 01:34:11;;;;;;;4.20;2.42;;;;;;;;;;5048255;28;20465;-83
2022/03/18 01:36:37;;;;;;;6.30;2.15;;;;;;;;;;5043923;28;20057;-84
2022/03/18 01:39:03;;;;;;;6.60;2.50;;;;;;;;;;5047165;28;20039;-83
2022/03/18 01:41:29;;;;;;;4.97;2.42;;;;;;;;;;5049881;28;20032;-84
2022/03/18 01:43:55;;;;;;;6.57;2.60;;;;;;;;;;5041098;28;20029;-84
2022/03/18 01:46:21;;;;;;;6.15;2.67;;;;;;;;;;5046628;28;20086;-83
2022/03/18 01:48:48;;;;;;;4.70;2.05;;;;;;;;;;5046031;28;20564;-84
2022/03/18 01:51:15;;;;;;;5.22;2.78;;;;;;;;;;5053655;28;20040;-85
2022/03/18 01:53:43;;;;;;;4.43;2.25;;;;;;;;;;5039518;28;21948;-84
2022/03/18 01:56:09;;;;;;;5.80;2.03;;;;;;;;;;5043729;28;20033;-84
2022/03/18 01:58:35;;;;;;;3.55;1.77;;;;;;;;;;5038912;28;20503;-85
2022/03/18 02:01:01;;;;;;;3.70;2.17;;;;;;;;;;5043588;28;20122;-84
2022/03/18 02:03:27;;;;;;;3.90;2.22;;;;;;;;;;5044746;28;20025;-84
2022/03/18 02:05:52;;;;;;;4.68;2.05;;;;;;;;;;5043086;28;20390;-83
2022/03/18 02:08:20;;;;;;;7.85;2.92;;;;;;;;;;5052785;28;20166;-83
2022/03/18 02:10:46;;;;;;;5.60;2.60;;;;;;;;;;5041502;28;20128;-84
2022/03/18 02:13:12;;;;;;;6.43;2.50;;;;;;;;;;5043552;28;20082;-83
2022/03/18 02:15:39;;;;;;;6.15;2.78;;;;;;;;;;5045942;28;20167;-84
2022/03/18 02:18:05;;;;;;;7.13;2.30;;;;;;;;;;5049358;28;20025;-84
2022/03/18 02:20:32;;;;;;;10.80;2.60;;;;;;;;;;5046170;28;20029;-84
2022/03/18 02:22:58;;;;;;;5.85;2.42;;;;;;;;;;5040755;28;20087;-86
2022/03/18 02:25:24;;;;;;;5.85;2.88;;;;;;;;;;5046054;28;20033;-85
2022/03/18 02:27:54;;;;;;;3.85;2.13;;;;;;;;;;5044356;28;20060;-82
2022/03/18 02:30:20;;;;;;;4.47;2.13;;;;;;;;;;5044242;28;20025;-83
2022/03/18 02:32:47;;;;;;;3.47;1.75;;;;;;;;;;5047132;28;20055;-84
2022/03/18 02:35:13;;;;;;;5.55;2.78;;;;;;;;;;5046564;28;20035;-84
2022/03/18 02:37:39;;;;;;;3.65;1.65;;;;;;;;;;5044026;28;20033;-84
2022/03/18 02:40:05;;;;;;;4.32;2.25;;;;;;;;;;5048005;28;20370;-83
2022/03/18 02:42:31;;;;;;;6.70;3.85;;;;;;;;;;5048887;28;20033;-84
2022/03/18 02:44:57;;;;;;;5.50;2.65;;;;;;;;;;5041065;28;20104;-84
2022/03/18 02:47:24;;;;;;;4.40;1.92;;;;;;;;;;5045000;28;20037;-82
2022/03/18 02:49:50;;;;;;;5.43;2.65;;;;;;;;;;5048238;28;20033;-84
2022/03/18 02:52:16;;;;;;;4.25;1.75;;;;;;;;;;5047792;28;20022;-83
2022/03/18 02:54:42;;;;;;;7.38;2.15;;;;;;;;;;5047424;28;20040;-83
2022/03/18 02:57:09;;;;;;;5.43;2.45;;;;;;;;;;5046556;28;20072;-83
2022/03/18 02:59:35;;;;;;;6.93;3.30;;;;;;;;;;5041940;28;20033;-84
2022/03/18 03:02:01;;;;;;;5.45;2.95;;;7.30;99.90;;;;;;5048112;28;20025;-83
2022/03/18 03:04:27;;;;;;;7.40;2.85;;;;;;;;;;5048407;28;20440;-83
2022/03/18 03:09:37;;;;;;;5.55;2.42;;;;;;;;;;5043750;28;20446;-84
2022/03/18 03:12:04;;;;;;;7.80;2.83;;;;;;;;;;5042808;28;20033;-84
2022/03/18 03:14:29;;;;;;;6.03;2.67;;;;;;;;;;5039202;28;20032;-83
2022/03/18 03:16:56;;;;;;;7.05;2.35;;;7.30;99.90;;;;;;5048065;28;20029;-83
2022/03/18 03:19:22;;;;;;;7.65;3.03;;;;;;;;;;5048983;28;20032;-83
2022/03/18 03:21:48;;;;;;;6.72;2.75;;;;;;;;;;5038630;28;20021;-83
2022/03/18 03:24:14;;;;;;;4.90;2.15;;;;;;;;;;5044212;28;20044;-84
2022/03/18 03:26:40;;;;;;;3.42;1.92;;;;;;;;;;5044573;28;20040;-83
2022/03/18 03:29:06;;;;;;;5.28;2.25;;;;;;;;;;5038080;28;20041;-83
2022/03/18 03:31:32;;;;;;;5.10;2.70;;;;;;;;;;5044569;28;20100;-83
2022/03/18 03:33:58;;;;;;;7.03;3.33;;;;;;;;;;5048009;28;20037;-83
2022/03/18 03:36:25;;;;;;;4.60;2.30;;;;;;;;;;5042953;28;20029;-85
2022/03/18 03:38:51;;;;;;;5.03;2.33;;;;;;;;;;5043085;28;20096;-84
2022/03/18 03:41:20;;;;;;;5.53;3.15;;;;;;;;;;5045208;28;20123;-84
2022/03/18 03:43:46;;;;;;;7.32;3.25;;;;;;;;;;5044608;28;20051;-84
2022/03/18 03:46:12;;;;;;;8.63;3.42;;;;;;;;;;5041152;28;20469;-83
2022/03/18 03:48:38;;;;;;;5.93;2.90;;;;;;;;;;5048867;28;20132;-83
2022/03/18 03:51:04;;;;;;;4.18;2.45;;;;;;;;;;5050282;28;20059;-84
2022/03/18 03:53:30;;;;;;;5.07;2.70;;;;;;;;;;5038368;28;20123;-83
2022/03/18 03:55:56;;;;;;;5.53;2.85;;;;;;;;;;5043783;28;20473;-83
2022/03/18 03:58:23;;;;;;;5.57;2.92;;;;;;;;;;5042106;28;20044;-83
2022/03/18 04:00:49;;;;;;;6.75;2.92;;;;;;;;;;5045114;28;20404;-83
2022/03/18 04:03:14;;;;;;;7.47;3.78;;;;;;;;;;5046195;28;20064;-84
2022/03/18 04:05:41;;;;;;;4.28;2.22;;;;;;;;;;5038289;28;20045;-84
2022/03/18 04:08:07;;;;;;;9.82;2.95;;;;;;;;;;5043378;28;20410;-84
2022/03/18 04:10:33;;;;;;;7.57;2.50;;;;;;;;;;5046684;28;20691;-84
2022/03/18 04:12:59;;;;;;;9.57;3.13;;;;;;;;;;5042228;28;20029;-83
2022/03/18 04:15:25;;;;;;;8.40;2.63;;;;;;;;;;5042236;28;20033;-83
2022/03/18 04:17:51;;;;;;;5.50;2.53;;;;;;;;;;5027359;28;20031;-84
2022/03/18 04:20:24;;;;;;;6.80;3.20;;;;;;;;;;5048517;28;20068;-84
2022/03/18 04:22:51;;;;;;;5.60;2.45;;;;;;;;;;5048255;28;20041;-84
2022/03/18 04:25:17;;;;;;;6.82;3.08;;;;;;;;;;5049521;28;20079;-84
2022/03/18 04:27:43;;;;;;;7.95;3.38;;;;;;;;;;5044204;28;20510;-84
2022/03/18 04:30:11;;;;;;;7.68;3.47;;;7.60;99.90;;;;;;5039730;28;20053;-83
2022/03/18 04:32:38;;;;;;;7.90;3.47;;;;;;;;;;5050736;28;20055;-83
2022/03/18 04:35:05;;;;;;;7.22;3.45;;;;;;;;;;5051323;28;20021;-84
2022/03/18 04:37:31;;;;;;;6.95;2.83;;;;;;;;;;5044081;28;20094;-84
2022/03/18 04:39:57;;;;;;;8.88;3.47;;;;;;;;;;5047479;28;20485;-84
2022/03/18 04:42:23;;;;;;;8.90;2.92;;;;;;;;;;5046212;28;20045;-83
2022/03/18 04:44:49;;;;;;;12.20;3.97;;;;;;;;;;5047009;28;20025;-83
2022/03/18 04:47:15;;;;;;;7.85;3.63;;;;;;;;;;5043191;28;20047;-83
2022/03/18 04:49:41;;;;;;;5.72;2.90;;;;;;;;;;5047312;28;20029;-83
2022/03/18 04:52:07;;;;;;;8.23;4.03;;;;;;;;;;5044965;28;20040;-84
2022/03/18 04:54:33;;;;;;;7.53;3.92;;;;;;;;;;5042956;28;20068;-83
2022/03/18 04:57:20;;;;;;;4.80;2.38;;;;;;;;;;5043547;28;20048;-83
2022/03/18 04:59:47;;;;;;;5.97;3.13;;;;;;;;;;5041547;28;20146;-82
2022/03/18 05:02:14;;;;;;;6.88;3.50;;;;;;;;;;5043673;28;20025;-83
2022/03/18 05:04:41;;;;;;;5.40;2.78;;;;;;;;;;5047516;28;20023;-82
2022/03/18 05:07:07;;;;;;;7.07;2.78;;;;;;;;;;5049747;28;20029;-82
2022/03/18 05:09:34;;;;;;;6.85;3.97;;;;;;;;;;5046541;28;20123;-82
2022/03/18 05:12:00;;;;;;;7.05;2.97;;;;;;;;;;5059559;28;20017;-82
2022/03/18 05:14:26;;;;;;;8.43;3.95;;;;;;;;;;5054770;28;20009;-82
2022/03/18 05:16:52;;;;;;;8.38;3.20;;;;;;;;;;5060827;28;20121;-82
2022/03/18 05:19:18;;;;;;;8.38;3.47;;;;;;;;;;5058682;28;20067;-85
2022/03/18 05:21:44;;;;;;;7.85;3.83;;;;;;;;;;5054913;28;20037;-86
2022/03/18 05:24:10;;;;;;;11.50;3.90;;;;;;;;;;5045719;28;20025;-86
2022/03/18 05:26:40;;;;;;;13.45;5.03;;;;;;;;;;5055604;28;20025;-88
2022/03/18 05:29:06;;;;;;;8.32;3.55;;;;;;;;;;5048885;28;20041;-86
2022/03/18 05:31:32;;;;;;;12.00;4.53;;;;;;;;;;5042137;28;20029;-85
2022/03/18 05:33:58;;;;;;;10.75;3.22;;;;;;;;;;5048566;28;20033;-84
2022/03/18 05:36:24;;;;;;;7.22;4.18;;;;;;;;;;5042008;28;20032;-86
2022/03/18 05:38:50;;;;;;;13.60;4.53;;;;;;;;;;5057255;28;20025;-87
2022/03/18 05:41:16;;;;;;;11.68;4.72;;;;;;;;;;5058190;28;20104;-87
2022/03/18 05:43:43;;;;;;;9.63;3.83;;;;;;;;;;5050510;28;20028;-84
2022/03/18 05:46:09;;;;;;;11.20;4.75;;;;;;;;;;5046009;28;20127;-84
2022/03/18 05:48:35;;;;;;;9.70;4.40;;;;;;;;;;5052351;28;20123;-82
2022/03/18 05:51:01;;;;;;;12.98;4.55;;;;;;;;;;5033892;28;20029;-85
2022/03/18 05:53:28;;;;;;;12.38;4.43;;;;;;;;;;5049702;28;20036;-84
2022/03/18 05:58:40;;;;;;;7.88;4.18;;;;;;;;;;5039177;28;20192;-86
2022/03/18 06:01:06;;;;;;;16.88;6.03;;;;;;;;;;5045169;28;20016;-84
2022/03/18 06:03:33;;;;;;;12.65;4.72;;;;;;;;;;5051061;28;20083;-84
2022/03/18 06:05:59;;;;;;;15.23;4.90;;;;;;;;;;5051772;28;20406;-85
2022/03/18 06:13:54;;;;;;;10.05;3.92;;;;;;;;;;5051701;28;20048;-83
2022/03/18 06:16:20;;;;;;;9.57;3.70;;;;;;;;;;5055297;28;20021;-86
2022/03/18 06:18:46;;;;;;;6.38;2.90;;;;;;;;;;5053952;28;21393;-82
2022/03/18 06:21:14;;;;;;;8.70;3.60;;;;;;;;;;5056273;28;20029;-84
2022/03/18 06:23:40;;;;;;;10.38;3.05;;;;;;;;;;5034877;28;20057;-84
2022/03/18 06:26:06;;;;;;;5.97;2.72;;;;;;;;;;5041308;28;20063;-84
2022/03/18 06:28:33;;;;;;;6.32;2.70;;;;;;;;;;5043545;28;20033;-84
2022/03/18 06:30:59;;;;;;;9.63;3.45;;;;;;;;;;5048941;28;20036;-83
2022/03/18 06:33:27;;;;;;;6.05;3.50;;;;;;;;;;5047665;28;20029;-84
2022/03/18 06:35:53;;;;;;;8.35;3.30;;;;;;;;;;5034560;28;20113;-83
2022/03/18 06:38:19;;;;;;;7.55;2.47;;;;;;;;;;5045098;28;20532;-83
2022/03/18 06:40:45;;;;;;;7.90;3.92;;;;;;;;;;5045219;28;20028;-84
2022/03/18 06:43:10;;;;;;;15.18;4.57;;;;;;;;;;5042809;28;20025;-83
2022/03/18 06:45:36;;;;;;;19.85;4.07;;;;;;;;;;5044603;28;20061;-84
2022/03/18 06:48:02;;;;;;;14.52;4.90;;;;;;;;;;5040848;28;20040;-84
2022/03/18 06:50:28;;;;;;;9.20;4.18;;;;;;;;;;5043774;28;20101;-82
2022/03/18 06:52:54;;;;;;;37.85;15.75;;;;;;;;;;5052403;28;21419;-85
2022/03/18 06:55:20;;;;;;;9.18;4.47;;;;;;;;;;5051962;28;20029;-84
2022/03/18 06:57:46;;;;;;;10.80;4.05;;;;;;;;;;5045456;28;20101;-84
2022/03/18 07:00:13;;;;;;;10.00;4.07;;;;;;;;;;5048413;28;20021;-82
2022/03/18 07:02:38;;;;;;;11.35;3.85;;;;;;;;;;5044981;28;20025;-83
2022/03/18 07:05:05;;;;;;;12.60;5.00;;;;;;;;;;5045136;28;20055;-83
2022/03/18 07:07:31;;;;;;;10.27;4.72;;;;;;;;;;5049091;28;20041;-84
2022/03/18 07:09:57;;;;;;;11.60;4.70;;;;;;;;;;5043069;28;20082;-82
2022/03/18 07:12:23;;;;;;;11.30;5.18;;;;;;;;;;5042967;28;20101;-82
2022/03/18 07:14:49;;;;;;;15.43;5.15;;;;;;;;;;5044606;28;20056;-82
2022/03/18 07:20:00;;;;;;;9.52;3.67;;;;;;;;;;5047401;28;20044;-85
2022/03/18 07:22:26;;;;;;;11.85;5.30;;;;;;;;;;5030787;28;20030;-84
2022/03/18 07:24:52;;;;;;;12.88;4.88;;;;;;;;;;5049103;28;20029;-83
2022/03/18 07:27:17;;;;;;;18.17;5.47;;;;;;;;;;5047033;28;20040;-85
2022/03/18 07:29:43;;;;;;;18.05;4.57;;;;;;;;;;5044813;28;20036;-83
2022/03/18 07:32:09;;;;;;;11.60;4.43;;;;;;;;;;5049119;28;20029;-83
2022/03/18 07:34:35;;;;;;;13.93;5.68;;;;;;;;;;5048246;28;20374;-86
2022/03/18 07:37:01;;;;;;;9.95;4.53;;;;;;;;;;5040069;28;20068;-82
2022/03/18 07:39:27;;;;;;;15.73;5.47;;;;;;;;;;5048814;28;20025;-83
2022/03/18 07:41:53;;;;;;;15.95;4.82;;;;;;;;;;5048806;28;20040;-84
2022/03/18 07:44:19;;;;;;;17.13;5.80;;;;;;;;;;5038769;28;20710;-83
2022/03/18 07:46:45;;;;;;;17.58;5.72;;;;;;;;;;5039760;28;20029;-83
2022/03/18 07:49:11;;;;;;;13.05;5.05;;;;;;;;;;5051089;28;20034;-84
2022/03/18 07:51:37;;;;;;;15.25;4.97;;;;;;;;;;5044414;28;20022;-84
2022/03/18 07:54:04;;;;;;;12.68;4.90;;;;;;;;;;5045434;28;20388;-85
2022/03/18 07:56:30;;;;;;;16.13;5.40;;;;;;;;;;5052816;28;20040;-84
2022/03/18 07:58:56;;;;;;;11.65;5.20;;;;;;;;;;5048306;28;20156;-84
2022/03/18 08:01:23;;;;;;;15.45;5.97;;;;;;;;;;5053571;28;20481;-83
2022/03/18 08:03:49;;;;;;;15.30;5.65;;;;;;;;;;5051874;28;20035;-83
2022/03/18 08:06:15;;;;;;;14.68;4.75;;;;;;;;;;5047411;28;20034;-83
2022/03/18 08:08:41;;;;;;;16.73;5.70;;;;;;;;;;5045350;28;20418;-84
2022/03/18 08:11:07;;;;;;;18.88;5.50;;;;;;;;;;5050684;28;20496;-84
2022/03/18 08:13:34;;;;;;;18.08;5.25;;;;;;;;;;5047083;28;20052;-84
2022/03/18 08:15:59;;;;;;;12.95;5.03;;;;;;;;;;5052096;28;20049;-85
2022/03/18 08:18:26;;;;;;;13.65;5.43;;;;;;;;;;5052241;28;20028;-84
2022/03/18 08:20:52;;;;;;;14.30;5.93;;;;;;;;;;5053975;28;20052;-82
2022/03/18 08:23:18;;;;;;;11.25;4.63;;;;;;;;;;5047922;28;20036;-84
2022/03/18 08:25:44;;;;;;;13.10;4.55;;;;;;;;;;5047969;28;20045;-84
2022/03/18 08:28:10;;;;;;;18.63;6.43;;;;;;;;;;5042671;28;20038;-86
2022/03/18 08:30:37;;;;;;;20.63;5.78;;;8.90;99.90;;;;;;5047714;28;20028;-86
2022/03/18 08:33:04;;;;;;;24.73;5.72;;;;;;;;;;5052411;28;20030;-86
2022/03/18 08:35:30;;;;;;;9.95;4.50;;;;;;;;;;5049141;28;20025;-84
2022/03/18 08:37:56;;;;;;;7.60;3.60;;;;;;;;;;5044391;28;20037;-86
2022/03/18 08:40:22;;;;;;;11.20;4.25;;;;;;;;;;5048920;28;20029;-86
2022/03/18 08:42:48;;;;;;;14.77;4.75;;;;;;;;;;5049064;28;20032;-84
2022/03/18 08:45:15;;;;;;;17.13;4.75;;;;;;;;;;5050718;28;20067;-85
2022/03/18 08:47:41;;;;;;;16.17;5.45;;;;;;;;;;5051508;28;20400;-84
2022/03/18 08:50:07;;;;;;;12.38;4.70;;;;;;;;;;5047147;28;20029;-85
2022/03/18 08:52:33;;;;;;;16.63;5.50;;;;;;;;;;5044809;28;20037;-83
2022/03/18 08:54:59;;;;;;;16.25;5.43;;;;;;;;;;5055283;28;20036;-84
2022/03/18 08:57:28;;;;;;;18.42;3.92;;;;;;;;;;5048921;28;20112;-86
2022/03/18 08:59:54;;;;;;;12.48;4.90;;;;;;;;;;5045194;28;20043;-84
2022/03/18 09:02:21;;;;;;;14.93;3.55;;;;;;;;;;5047759;28;20074;-83
2022/03/18 09:04:48;;;;;;;15.55;4.65;;;;;;;;;;5046612;28;20029;-82
2022/03/18 09:07:14;;;;;;;9.20;3.97;;;;;;;;;;5041758;28;20110;-85
2022/03/18 09:09:40;;;;;;;10.38;4.30;;;;;;;;;;5045468;28;20037;-82
2022/03/18 09:12:06;;;;;;;10.48;4.57;;;;;;;;;;5040231;28;20622;-84
2022/03/18 09:14:32;;;;;;;16.45;5.90;;;;;;;;;;5044641;28;20036;-84
2022/03/18 09:16:58;;;;;;;11.15;4.95;;;;;;;;;;5046101;28;20087;-83
2022/03/18 09:19:24;;;;;;;14.90;4.90;;;;;;;;;;5050359;28;20030;-83
2022/03/18 09:21:50;;;;;;;33.13;9.23;;;9.90;99.90;;;;;;5051091;28;20021;-82
2022/03/18 09:24:16;;;;;;;32.75;10.13;;;;;;;;;;5045477;28;20097;-84
2022/03/18 09:26:42;;;;;;;18.35;6.57;;;;;;;;;;5046389;28;20104;-85
2022/03/18 09:29:08;;;;;;;25.73;8.45;;;;;;;;;;5041007;28;20164;-84
2022/03/18 09:31:34;;;;;;;17.38;6.10;;;;;;;;;;5053452;28;20041;-84
2022/03/18 09:34:00;;;;;;;12.30;4.80;;;;;;;;;;5054401;28;20564;-84
2022/03/18 09:36:26;;;;;;;19.42;5.03;;;;;;;;;;5039647;28;20040;-85
2022/03/18 09:38:52;;;;;;;13.63;4.50;;;;;;;;;;5048692;28;20436;-84
2022/03/18 09:41:18;;;;;;;13.02;4.75;;;;;;;;;;5050264;28;20025;-87
2022/03/18 09:43:44;;;;;;;16.98;5.30;;;;;;;;;;5042423;28;20020;-84
2022/03/18 09:46:12;;;;;;;10.45;5.03;;;;;;;;;;5042972;28;20063;-84
2022/03/18 09:48:39;;;;;;;18.15;6.07;;;;;;;;;;5045353;28;20048;-83
2022/03/18 09:51:05;;;;;;;15.20;5.38;;;;;;;;;;5045450;28;20033;-84
2022/03/18 09:53:34;;;;;;;14.63;5.43;;;;;;;;;;5038482;28;20032;-84
2022/03/18 09:56:00;;;;;;;18.20;7.50;;;;;;;;;;5043460;28;20035;-82
2022/03/18 09:58:26;;;;;;;11.43;5.55;;;;;;;;;;5038837;28;20037;-84
2022/03/18 10:00:52;;;;;;;12.48;5.18;;;;;;;;;;5041436;28;20025;-83
2022/03/18 10:03:21;;;;;;;16.25;6.00;;;;;;;;;;5045036;28;20029;-82
2022/03/18 10:05:49;;;;;;;18.02;7.25;;;;;;;;;;5047460;28;20033;-84
2022/03/18 10:08:15;;;;;;;18.88;7.45;;;;;;;;;;5044212;28;20032;-86
2022/03/18 10:10:45;;;;;;;17.50;6.38;;;;;;;;;;5045454;28;20544;-85
2022/03/18 10:13:12;;;;;;;16.70;6.15;;;;;;;;;;5043140;28;20053;-83
2022/03/18 10:15:38;;;;;;;11.70;4.80;;;;;;;;;;5044964;28;20068;-86
2022/03/18 10:18:06;;;;;;;14.43;4.95;;;;;;;;;;5047079;28;20108;-84
2022/03/18 10:20:32;;;;;;;12.57;5.45;;;;;;;;;;5049496;28;20048;-87
2022/03/18 10:23:02;;;;;;;15.90;5.30;;;;;;;;;;5044231;28;20025;-85
2022/03/18 10:25:37;;;;;;;14.38;6.45;;;11.00;99.90;;;;;;5045340;28;20049;-84
2022/03/18 10:28:03;;;;;;;10.88;5.10;;;;;;;;;;5040052;28;20041;-83
2022/03/18 10:30:29;;;;;;;16.20;5.88;;;;;;;;;;5048746;28;20048;-84
2022/03/18 10:32:55;;;;;;;21.02;7.28;;;;;;;;;;5051724;28;20036;-85
2022/03/18 10:38:34;;;;;;;15.05;5.45;;;;;;;;;;5044839;28;20104;-84
2022/03/18 10:41:07;;;;;;;19.00;6.53;;;12.10;99.90;;;;;;5046552;28;20647;-83
2022/03/18 10:43:53;;;;;;;27.95;10.27;;;;;;;;;;5046241;28;20059;-84
2022/03/18 10:46:19;;;;;;;21.42;7.60;;;11.70;99.90;;;;;;5045972;28;20048;-84
2022/03/18 10:49:05;;;;;;;11.45;5.75;;;11.50;99.90;;;;;;5047696;28;20479;-82
2022/03/18 10:51:31;;;;;;;17.98;6.28;;;;;;;;;;5052460;28;20057;-84
2022/03/18 10:53:58;;;;;;;14.27;6.13;;;;;;;;;;5058095;28;20037;-87
2022/03/18 10:56:27;;;;;;;12.50;5.22;;;;;;;;;;5061784;28;20128;-84
2022/03/18 10:58:53;;;;;;;17.25;6.43;;;;;;;;;;5061074;28;20044;-85
2022/03/18 11:01:19;;;;;;;14.75;5.65;;;;;;;;;;5050270;28;20029;-85
2022/03/18 11:03:46;;;;;;;14.30;6.03;;;;;;;;;;5048618;28;20396;-85
2022/03/18 11:06:17;;;;;;;14.02;5.97;;;;;;;;;;5044597;28;20036;-85
2022/03/18 11:08:45;;;;;;;17.95;6.43;;;;;;;;;;5047163;28;20181;-85
2022/03/18 11:11:17;;;;;;;20.58;7.13;;;;;;;;;;5047530;28;20060;-87
2022/03/18 11:13:52;;;;;;;19.40;7.05;;;;;;;;;;5041123;28;20025;-85
2022/03/18 11:16:19;;;;;;;22.33;7.38;;;;;;;;;;5047624;28;20043;-83
2022/03/18 11:18:46;;;;;;;12.77;5.82;;;;;;;;;;5049314;28;20024;-83
2022/03/18 11:21:13;;;;;;;17.92;7.20;;;;;;;;;;5042297;28;20259;-87
2022/03/18 11:23:40;;;;;;;20.92;6.00;;;;;;;;;;5046298;28;20084;-83
2022/03/18 11:26:06;;;;;;;10.05;4.05;;;;;;;;;;5045351;28;20036;-84
2022/03/18 11:28:32;;;;;;;12.85;6.38;;;;;;;;;;5038477;28;20049;-84
2022/03/18 11:31:03;;;;;;;11.93;5.80;;;;;;;;;;5046890;28;20040;-86
2022/03/18 11:33:29;;;;;;;13.23;5.95;;;;;;;;;;5045613;28;20041;-83
2022/03/18 11:35:55;;;;;;;12.57;6.57;;;;;;;;;;5039739;28;20033;-88
2022/03/18 11:38:25;;;;;;;31.63;11.50;;;;;;;;;;5045040;28;20017;-84
2022/03/18 11:40:58;;;;;;;17.13;7.93;;;;;;;;;;5050576;28;20025;-84
2022/03/18 11:43:36;;;;;;;14.25;7.03;;;;;;;;;;5041171;28;20068;-85
2022/03/18 11:46:17;;;;;;;13.40;7.07;;;11.20;99.90;;;;;;5043379;28;20064;-82
2022/03/18 11:49:01;;;;;;;16.45;7.22;;;;;;;;;;5049127;28;20035;-84
2022/03/18 11:51:29;;;;;;;15.93;5.25;;;;;;;;;;5045252;28;20159;-82
2022/03/18 11:53:55;;;;;;;16.23;5.95;;;;;;;;;;5039116;28;20029;-84
2022/03/18 11:56:23;;;;;;;12.63;6.35;;;;;;;;;;5047539;28;20439;-84
2022/03/18 11:58:49;;;;;;;15.20;6.45;;;;;;;;;;5039996;28;20033;-84
2022/03/18 12:01:34;;;;;;;12.65;6.40;;;;;;;;;;5044880;28;20090;-84
2022/03/18 12:04:00;;;;;;;15.73;5.85;;;;;;;;;;5044872;28;20041;-86
2022/03/18 12:06:25;;;;;;;16.60;5.93;;;;;;;;;;5041018;28;20044;-84
2022/03/18 12:08:51;;;;;;;13.70;6.88;;;;;;;;;;5041733;28;20048;-86
2022/03/18 12:11:28;;;;;;;15.75;5.72;;;;;;;;;;5044618;28;20029;-83
2022/03/18 12:13:54;;;;;;;11.30;5.57;;;;;;;;;;5042627;28;20029;-86
2022/03/18 12:16:20;;;;;;;15.30;6.55;;;;;;;;;;5042275;28;20063;-84
2022/03/18 12:18:46;;;;;;;13.40;6.13;;;;;;;;;;5046543;28;20652;-85
2022/03/18 12:21:13;;;;;;;14.68;6.38;;;;;;;;;;5047059;28;20428;-84
2022/03/18 12:23:39;;;;;;;17.98;6.60;;;12.00;99.90;;;;;;5036515;28;20382;-83
2022/03/18 12:26:05;;;;;;;15.52;6.85;;;11.50;99.90;;;;;;5042809;28;20070;-83
2022/03/18 12:28:44;;;;;;;11.95;5.68;;;;;;;;;;5042878;28;20040;-85
2022/03/18 12:31:16;;;;;;;15.15;7.28;;;;;;;;;;5044979;28;20124;-86
2022/03/18 12:33:42;;;;;;;15.27;7.22;;;;;;;;;;5048487;28;20040;-83
2022/03/18 12:36:08;;;;;;;28.80;12.65;;;;;;;;;;5033699;28;20038;-85
2022/03/18 12:38:35;;;;;;;14.70;6.72;;;;;;;;;;5030993;28;20525;-85
2022/03/18 12:41:01;;;;;;;12.27;6.68;;;;;;;;;;5052386;28;20047;-83
2022/03/18 12:43:31;;;;;;;16.45;7.13;;;;;;;;;;5042958;28;20401;-82
2022/03/18 12:45:57;;;;;;;16.35;6.97;;;;;;;;;;5051418;28;20029;-82
2022/03/18 12:48:23;;;;;;;15.77;6.68;;;;;;;;;;5038975;28;20036;-84
2022/03/18 12:50:50;;;;;;;20.85;8.95;;;;;;;;;;5046282;28;20032;-86
2022/03/18 12:53:18;;;;;;;16.70;6.40;;;;;;;;;;5043694;28;20032;-82
2022/03/18 12:55:45;;;;;;;19.88;8.43;;;;;;;;;;5042641;28;20049;-84
2022/03/18 12:58:12;;;;;;;18.75;8.43;;;;;;;;;;5044306;28;20029;-82
2022/03/18 13:00:54;;;;;;;17.17;6.97;;;11.90;99.90;;;;;;5028141;28;20033;-81
2022/03/18 13:03:23;;;;;;;17.05;6.65;;;;;;;;;;5043906;28;20087;-82
2022/03/18 13:05:52;;;;;;;16.27;6.53;;;;;;;;;;5044175;28;20029;-83
2022/03/18 13:08:18;;;;;;;14.55;6.65;;;;;;;;;;5034669;28;20036;-82
2022/03/18 13:10:52;;;;;;;13.10;6.75;;;;;;;;;;5052012;28;20021;-81
2022/03/18 13:13:18;;;;;;;15.50;6.22;;;;;;;;;;5046087;28;20029;-85
2022/03/18 13:15:51;;;;;;;17.83;7.05;;;;;;;;;;5042492;28;20390;-86
2022/03/18 13:18:18;;;;;;;;;;;;;;;;;;5042104;28;20534;-85
2022/03/18 13:20:47;;;;;;;15.45;6.65;;;12.90;99.90;;;;;;5049669;28;19944;-85
2022/03/18 13:23:17;;;;;;;16.10;7.22;;;13.20;99.90;;;;;;5044945;28;20041;-86
2022/03/18 13:25:43;;;;;;;18.85;5.78;;;13.60;99.90;;;;;;5043472;28;20039;-83
2022/03/18 13:28:10;;;;;;;17.40;8.32;;;;;;;;;;5041846;28;20037;-87
2022/03/18 13:33:21;;;;;;;15.40;6.85;;;;;;;;;;5047981;28;20654;-88
2022/03/18 13:35:47;;;;;;;15.80;7.45;;;;;;;;;;5039622;28;20110;-86
2022/03/18 13:38:14;;;;;;;21.55;7.25;;;;;;;;;;5049025;28;20075;-82
2022/03/18 13:40:41;;;;;;;28.80;7.07;;;;;;;;;;5045356;28;20024;-84
2022/03/18 13:43:09;;;;;;;16.67;7.50;;;;;;;;;;5046683;28;20477;-84
2022/03/18 13:45:36;;;;;;;17.85;7.63;;;;;;;;;;5048609;28;20033;-82
2022/03/18 13:48:02;;;;;;;16.23;7.40;;;;;;;;;;5034085;28;20088;-83
2022/03/18 13:50:45;;;;;;;17.55;6.63;;;;;;;;;;5050323;28;20068;-84
2022/03/18 13:53:19;;;;;;;13.73;6.50;;;;;;;;;;5051594;28;20067;-81
2022/03/18 13:55:46;;;;;;;15.65;7.30;;;;;;;;;;5044784;28;20029;-83
2022/03/18 13:58:12;;;;;;;15.27;6.85;;;;;;;;;;5055973;28;20032;-81
2022/03/18 14:00:39;;;;;;;15.35;6.50;;;;;;;;;;5050936;28;20020;-82
2022/03/18 14:03:08;;;;;;;18.88;7.53;;;13.10;99.90;;;;;;5037606;28;20089;-84
2022/03/18 14:05:35;;;;;;;15.18;6.72;;;;;;;;;;5048976;28;20036;-83
2022/03/18 14:08:02;;;;;;;20.63;7.78;;;;;;;;;;5032783;28;20033;-83
2022/03/18 14:10:41;;;;;;;18.42;8.00;;;;;;;;;;5053295;28;20025;-84
2022/03/18 14:13:09;;;;;;;14.25;6.82;;;;;;;;;;5052051;28;20058;-86
2022/03/18 14:15:41;;;;;;;15.95;7.15;;;;;;;;;;5048610;28;20111;-81
2022/03/18 14:18:08;;;;;;;15.90;7.60;;;;;;;;;;5055981;28;20033;-84
2022/03/18 14:20:35;;;;;;;14.48;6.85;;;;;;;;;;5054602;28;20036;-83
2022/03/18 14:23:16;;;;;;;16.45;7.72;;;;;;;;;;5050846;28;20029;-80
2022/03/18 14:25:42;;;;;;;20.25;6.85;;;;;;;;;;5041160;28;20025;-83
2022/03/18 14:28:09;;;;;;;13.05;5.40;;;;;;;;;;5046361;28;20033;-83
2022/03/18 14:30:36;;;;;;;12.90;6.10;;;;;;;;;;5045707;28;20488;-84
2022/03/18 14:33:02;;;;;;;13.20;6.65;;;;;;;;;;5049263;28;20033;-84
2022/03/18 14:35:29;;;;;;;14.80;6.18;;;;;;;;;;5050835;28;20021;-85
2022/03/18 14:37:57;;;;;;;16.80;6.40;;;;;;;;;;5036501;28;20044;-82
2022/03/18 14:40:23;;;;;;;15.02;6.88;;;;;;;;;;5051054;28;20032;-84
2022/03/18 14:42:49;;;;;;;17.52;5.82;;;;;;;;;;5046454;28;20773;-87
2022/03/18 14:45:17;;;;;;;14.57;7.30;;;;;;;;;;5050501;28;20033;-82
2022/03/18 14:47:43;;;;;;;16.08;6.00;;;;;;;;;;5051965;28;20086;-84
2022/03/18 14:50:09;;;;;;;13.63;5.93;;;;;;;;;;5047538;28;20220;-83
2022/03/18 14:52:36;;;;;;;12.25;5.40;;;;;;;;;;5042149;28;20036;-84